createdAt,value
2022-09-30T00:00:20.956Z,11.77
2022-09-30T00:03:06.313Z,11.05
2022-09-30T00:05:56.619Z,11.43
2022-09-30T00:08:40.697Z,11.30
2022-09-30T00:11:28.743Z,12.10
2022-09-30T00:14:15.805Z,12.07
2022-09-30T00:16:59.709Z,11.95
2022-09-30T00:19:44.927Z,12.40
2022-09-30T00:22:28.827Z,13.03
2022-09-30T00:25:12.600Z,12.27
2022-09-30T00:27:56.290Z,11.10
2022-09-30T00:30:39.990Z,11.25
2022-09-30T00:33:23.792Z,11.63
2022-09-30T00:36:09.181Z,12.43
2022-09-30T00:38:52.951Z,12.20
2022-09-30T00:41:37.720Z,10.90
2022-09-30T00:44:48.016Z,10.93
2022-09-30T00:47:39.895Z,10.33
2022-09-30T00:50:34.283Z,10.73
2022-09-30T00:53:23.133Z,11.70
2022-09-30T00:56:11.153Z,11.68
2022-09-30T00:58:57.948Z,11.70
2022-09-30T01:01:43.022Z,11.97
2022-09-30T01:04:29.855Z,12.17
2022-09-30T01:07:15.644Z,12.13
2022-09-30T01:10:02.489Z,12.57
2022-09-30T01:12:47.089Z,12.27
2022-09-30T01:15:45.403Z,12.40
2022-09-30T01:18:40.345Z,11.60
2022-09-30T01:21:48.618Z,11.33
2022-09-30T01:24:44.935Z,10.57
2022-09-30T01:28:03.611Z,9.43
2022-09-30T01:31:03.843Z,9.75
2022-09-30T01:33:57.474Z,8.53
2022-09-30T01:36:54.454Z,8.13
2022-09-30T01:39:52.370Z,8.02
2022-09-30T01:42:42.245Z,6.37
2022-09-30T01:45:35.237Z,6.73
2022-09-30T01:48:27.493Z,6.10
2022-09-30T01:51:19.263Z,6.07
2022-09-30T01:54:10.805Z,5.88
2022-09-30T01:57:01.102Z,5.30
2022-09-30T01:59:49.618Z,5.63
2022-09-30T02:02:36.230Z,5.85
2022-09-30T02:05:26.862Z,6.78
2022-09-30T02:08:16.844Z,7.10
2022-09-30T02:11:06.121Z,6.70
2022-09-30T02:13:54.174Z,6.33
2022-09-30T02:17:04.095Z,6.77
2022-09-30T02:19:52.374Z,7.07
2022-09-30T02:22:42.574Z,6.27
2022-09-30T02:25:32.467Z,5.77
2022-09-30T02:28:23.463Z,6.60
2022-09-30T02:31:11.299Z,6.43
2022-09-30T02:33:59.767Z,7.50
2022-09-30T02:36:48.758Z,7.20
2022-09-30T02:39:42.256Z,7.43
2022-09-30T02:42:29.544Z,7.90
2022-09-30T02:45:17.473Z,8.23
2022-09-30T02:48:10.648Z,8.17
2022-09-30T02:51:01.772Z,6.13
2022-09-30T02:53:54.352Z,5.97
2022-09-30T02:56:51.552Z,6.10
2022-09-30T02:59:35.466Z,5.47
2022-09-30T03:02:19.807Z,5.73
2022-09-30T03:05:04.836Z,5.93
2022-09-30T03:07:48.841Z,5.40
2022-09-30T03:10:34.437Z,5.27
2022-09-30T03:13:44.339Z,4.70
2022-09-30T03:16:41.869Z,5.72
2022-09-30T03:19:42.699Z,4.70
2022-09-30T03:22:48.097Z,5.32
2022-09-30T03:25:43.872Z,5.22
2022-09-30T03:28:34.572Z,4.78
2022-09-30T03:31:25.703Z,5.07
2022-09-30T03:34:20.600Z,5.30
2022-09-30T03:37:15.029Z,5.57
2022-09-30T03:40:03.854Z,5.32
2022-09-30T03:42:54.207Z,4.53
2022-09-30T03:45:47.592Z,4.60
2022-09-30T03:48:33.445Z,5.55
2022-09-30T03:51:18.477Z,5.72
2022-09-30T03:54:02.392Z,6.53
2022-09-30T03:56:46.166Z,6.78
2022-09-30T03:59:30.056Z,5.90
2022-09-30T04:02:15.265Z,8.77
2022-09-30T04:04:59.211Z,9.77
2022-09-30T04:07:42.958Z,8.50
2022-09-30T04:10:26.776Z,11.60
2022-09-30T04:13:11.767Z,11.32
2022-09-30T04:15:55.914Z,11.07
2022-09-30T04:18:41.158Z,9.17
2022-09-30T04:21:25.087Z,7.17
2022-09-30T04:24:09.476Z,5.97
2022-09-30T04:26:53.173Z,5.97
2022-09-30T04:29:37.061Z,5.43
2022-09-30T04:32:23.100Z,5.30
2022-09-30T04:35:08.963Z,11.88
2022-09-30T04:37:52.764Z,18.42
2022-09-30T04:40:37.960Z,20.92
2022-09-30T04:43:23.390Z,20.35
2022-09-30T04:46:07.878Z,17.25
2022-09-30T04:48:51.720Z,15.68
2022-09-30T04:51:38.469Z,14.43
2022-09-30T04:54:22.393Z,14.27
2022-09-30T04:57:06.286Z,14.10
2022-09-30T04:59:50.839Z,13.60
2022-09-30T05:02:34.604Z,13.13
2022-09-30T05:05:19.008Z,13.38
2022-09-30T05:08:05.182Z,12.40
2022-09-30T05:10:55.207Z,11.55
2022-09-30T05:13:42.276Z,11.18
2022-09-30T05:16:28.040Z,13.93
2022-09-30T05:19:11.856Z,11.85
2022-09-30T05:21:55.589Z,11.23
2022-09-30T05:24:40.673Z,10.50
2022-09-30T05:27:24.820Z,10.65
2022-09-30T05:30:09.752Z,9.60
2022-09-30T05:32:53.541Z,8.65
2022-09-30T05:35:37.737Z,8.60
2022-09-30T05:38:21.526Z,7.28
2022-09-30T05:41:11.559Z,7.22
2022-09-30T05:43:55.420Z,8.23
2022-09-30T05:46:39.228Z,8.18
2022-09-30T05:49:23.166Z,8.13
2022-09-30T05:52:07.889Z,8.32
2022-09-30T05:54:51.672Z,9.23
2022-09-30T05:57:37.545Z,9.40
2022-09-30T06:00:21.461Z,8.70
2022-09-30T06:03:05.273Z,9.23
2022-09-30T06:05:49.084Z,8.43
2022-09-30T06:08:33.065Z,8.70
2022-09-30T06:11:18.547Z,10.40
2022-09-30T06:14:03.637Z,12.63
2022-09-30T06:16:48.499Z,14.18
2022-09-30T06:19:32.284Z,14.88
2022-09-30T06:22:16.335Z,15.38
2022-09-30T06:25:00.098Z,18.67
2022-09-30T06:27:46.896Z,18.67
2022-09-30T06:30:35.224Z,19.52
2022-09-30T06:33:19.402Z,20.05
2022-09-30T06:36:04.788Z,18.00
2022-09-30T06:38:53.035Z,17.15
2022-09-30T06:41:43.573Z,15.60
2022-09-30T06:44:30.156Z,13.20
2022-09-30T06:47:23.945Z,13.43
2022-09-30T06:50:20.163Z,14.20
2022-09-30T06:53:08.758Z,15.73
2022-09-30T06:55:56.948Z,12.98
2022-09-30T06:58:41.428Z,12.73
2022-09-30T07:01:25.467Z,13.18
2022-09-30T07:04:11.493Z,13.80
2022-09-30T07:06:55.385Z,13.52
2022-09-30T07:09:39.250Z,13.75
2022-09-30T07:12:23.068Z,13.60
2022-09-30T07:15:12.788Z,10.00
2022-09-30T07:17:57.852Z,9.05
2022-09-30T07:20:43.220Z,8.48
2022-09-30T07:23:27.506Z,8.02
2022-09-30T07:26:11.289Z,10.18
2022-09-30T07:28:55.712Z,10.35
2022-09-30T07:31:39.779Z,11.38
2022-09-30T07:34:24.334Z,9.65
2022-09-30T07:37:10.398Z,9.43
2022-09-30T07:39:54.859Z,9.35
2022-09-30T07:42:46.092Z,8.23
2022-09-30T07:45:30.392Z,7.18
2022-09-30T07:48:34.649Z,7.82
2022-09-30T07:51:20.311Z,6.60
2022-09-30T07:54:07.839Z,6.95
2022-09-30T07:59:56.897Z,6.25
2022-09-30T08:02:40.894Z,6.10
2022-09-30T08:05:24.733Z,5.13
2022-09-30T08:08:08.496Z,5.38
2022-09-30T08:10:53.772Z,6.13
2022-09-30T08:13:37.975Z,5.05
2022-09-30T08:16:23.045Z,5.22
2022-09-30T08:19:06.864Z,4.93
2022-09-30T08:21:51.360Z,5.25
2022-09-30T08:24:35.153Z,5.22
2022-09-30T08:27:20.839Z,5.85
2022-09-30T08:30:05.221Z,5.03
2022-09-30T08:32:49.201Z,4.50
2022-09-30T08:35:33.359Z,5.20
2022-09-30T08:38:17.080Z,5.70
2022-09-30T08:41:13.564Z,5.05
2022-09-30T08:44:07.743Z,5.93
2022-09-30T08:46:58.685Z,5.95
2022-09-30T08:49:51.484Z,5.05
2022-09-30T08:52:48.322Z,5.22
2022-09-30T08:55:40.814Z,5.10
2022-09-30T08:58:29.538Z,6.10
2022-09-30T09:01:20.510Z,6.88
2022-09-30T09:04:06.656Z,5.80
2022-09-30T09:06:59.786Z,5.60
2022-09-30T09:09:59.530Z,5.20
2022-09-30T09:12:54.452Z,5.20
2022-09-30T09:15:50.139Z,5.10
2022-09-30T09:18:47.081Z,5.25
2022-09-30T09:21:41.522Z,4.50
2022-09-30T09:24:27.364Z,5.95
2022-09-30T09:27:21.047Z,4.57
2022-09-30T09:30:08.602Z,4.47
2022-09-30T09:32:56.347Z,4.43
2022-09-30T09:35:49.999Z,5.10
2022-09-30T09:38:42.665Z,5.07
2022-09-30T09:41:34.845Z,4.70
2022-09-30T09:44:29.250Z,4.70
2022-09-30T09:47:17.264Z,4.20
2022-09-30T09:50:04.562Z,3.92
2022-09-30T09:53:11.887Z,4.95
2022-09-30T09:56:00.270Z,4.78
2022-09-30T09:59:09.061Z,4.53
2022-09-30T10:01:54.692Z,4.40
2022-09-30T10:04:51.159Z,4.43
2022-09-30T10:07:35.553Z,4.50
2022-09-30T10:10:24.075Z,4.60
2022-09-30T10:13:17.325Z,3.92
2022-09-30T10:16:02.979Z,3.80
2022-09-30T10:18:47.009Z,4.15
2022-09-30T10:21:31.492Z,4.38
2022-09-30T10:24:29.528Z,4.13
2022-09-30T10:27:28.723Z,4.38
2022-09-30T10:30:12.641Z,4.47
2022-09-30T10:32:56.832Z,4.35
2022-09-30T10:35:53.453Z,4.35
2022-09-30T10:38:45.911Z,4.50
2022-09-30T10:41:32.477Z,3.85
2022-09-30T10:44:21.254Z,4.18
2022-09-30T10:47:05.802Z,4.22
2022-09-30T10:49:52.804Z,4.03
2022-09-30T10:52:40.313Z,4.35
2022-09-30T10:55:30.473Z,4.80
2022-09-30T10:58:29.463Z,4.45
2022-09-30T11:01:22.970Z,5.53
2022-09-30T11:04:15.889Z,4.82
2022-09-30T11:07:10.056Z,4.47
2022-09-30T11:10:01.149Z,4.72
2022-09-30T11:12:51.548Z,4.28
2022-09-30T11:15:44.247Z,4.50
2022-09-30T11:18:39.211Z,4.70
2022-09-30T11:21:29.490Z,4.47
2022-09-30T11:24:26.597Z,4.10
2022-09-30T11:27:18.625Z,4.03
2022-09-30T11:30:10.470Z,4.55
2022-09-30T11:33:07.658Z,4.00
2022-09-30T11:36:02.888Z,4.88
2022-09-30T11:39:06.655Z,4.30
2022-09-30T11:41:58.397Z,4.55
2022-09-30T11:44:45.138Z,4.63
2022-09-30T11:47:42.860Z,4.20
2022-09-30T11:50:46.978Z,5.32
2022-09-30T11:53:44.481Z,5.03
2022-09-30T11:56:40.246Z,5.55
2022-09-30T11:59:27.548Z,4.80
2022-09-30T12:02:26.835Z,5.07
2022-09-30T12:05:18.130Z,5.05
2022-09-30T12:08:06.124Z,4.38
2022-09-30T12:10:55.358Z,3.75
2022-09-30T12:13:43.618Z,4.20
2022-09-30T12:16:33.254Z,5.00
2022-09-30T12:19:25.071Z,4.20
2022-09-30T12:22:15.581Z,4.60
2022-09-30T12:24:59.700Z,4.65
2022-09-30T12:27:49.505Z,4.32
2022-09-30T12:30:34.779Z,4.45
2022-09-30T12:33:36.124Z,4.95
2022-09-30T12:36:44.311Z,4.60
2022-09-30T12:39:58.040Z,4.00
2022-09-30T12:43:23.505Z,5.10
2022-09-30T12:46:16.947Z,4.80
2022-09-30T12:49:05.750Z,4.13
2022-09-30T12:51:52.550Z,4.00
2022-09-30T12:54:41.258Z,3.47
2022-09-30T12:57:28.365Z,3.80
2022-09-30T13:00:17.572Z,3.38
2022-09-30T13:03:07.200Z,3.70
2022-09-30T13:05:57.905Z,3.33
2022-09-30T13:08:50.771Z,3.05
2022-09-30T13:11:38.619Z,3.50
2022-09-30T13:14:43.475Z,3.13
2022-09-30T13:17:28.122Z,3.20
2022-09-30T13:20:44.808Z,3.20
2022-09-30T13:23:40.682Z,3.15
2022-09-30T13:26:36.206Z,3.60
2022-09-30T13:29:40.258Z,3.17
2022-09-30T13:32:37.385Z,3.33
2022-09-30T13:35:32.995Z,2.97
2022-09-30T13:38:18.790Z,4.15
2022-09-30T13:41:15.840Z,3.50
2022-09-30T13:44:10.356Z,3.63
2022-09-30T13:46:58.231Z,3.08
2022-09-30T13:49:47.229Z,3.70
2022-09-30T13:52:35.449Z,3.83
2022-09-30T13:55:23.785Z,4.00
2022-09-30T13:58:32.173Z,3.38
2022-09-30T14:01:27.975Z,4.03
2022-09-30T14:04:37.521Z,3.47
2022-09-30T14:07:41.242Z,3.10
2022-09-30T14:10:42.235Z,4.47
2022-09-30T14:13:42.652Z,3.40
2022-09-30T14:16:47.535Z,3.50
2022-09-30T14:20:05.231Z,3.22
2022-09-30T14:22:49.415Z,3.30
2022-09-30T14:25:41.299Z,2.95
2022-09-30T14:28:34.729Z,3.53
2022-09-30T14:31:20.250Z,3.78
2022-09-30T14:34:04.943Z,3.47
2022-09-30T14:39:51.951Z,3.70
2022-09-30T14:42:40.057Z,3.30
2022-09-30T14:45:28.329Z,3.72
2022-09-30T14:48:18.353Z,3.42
2022-09-30T14:51:06.120Z,3.53
2022-09-30T14:53:57.639Z,3.05
2022-09-30T14:56:42.161Z,3.13
2022-09-30T14:59:28.137Z,2.97
2022-09-30T15:02:18.500Z,3.15
2022-09-30T15:05:05.096Z,3.13
2022-09-30T15:07:49.260Z,3.00
2022-09-30T15:10:33.631Z,3.22
2022-09-30T15:13:19.896Z,3.03
2022-09-30T15:16:03.705Z,3.72
2022-09-30T15:18:48.942Z,3.45
2022-09-30T15:21:33.232Z,3.35
2022-09-30T15:24:18.654Z,3.55
2022-09-30T15:27:03.919Z,3.40
2022-09-30T15:29:57.317Z,3.30
2022-09-30T15:35:33.286Z,3.70
2022-09-30T15:38:22.421Z,3.67
2022-09-30T15:41:08.839Z,2.80
2022-09-30T15:43:54.500Z,3.47
2022-09-30T15:46:40.620Z,3.78
2022-09-30T15:49:45.251Z,3.28
2022-09-30T15:52:39.718Z,3.70
2022-09-30T15:55:43.219Z,3.47
2022-09-30T15:58:37.892Z,3.53
2022-09-30T16:01:23.490Z,3.90
2022-09-30T16:04:14.410Z,3.58
2022-09-30T16:07:00.648Z,7.28
2022-09-30T16:09:49.413Z,7.18
2022-09-30T16:12:36.740Z,6.28
2022-09-30T16:15:20.575Z,3.75
2022-09-30T16:18:04.440Z,4.32
2022-09-30T16:20:59.480Z,11.10
2022-09-30T16:23:43.472Z,8.63
2022-09-30T16:26:30.963Z,6.97
2022-09-30T16:29:17.697Z,6.45
2022-09-30T16:32:02.134Z,6.07
2022-09-30T16:34:45.852Z,6.20
2022-09-30T16:37:29.667Z,6.07
2022-09-30T16:40:23.185Z,6.85
2022-09-30T16:43:10.945Z,5.90
2022-09-30T16:45:54.792Z,5.07
2022-09-30T16:48:39.873Z,4.13
2022-09-30T16:51:23.654Z,5.25
2022-09-30T16:54:07.331Z,6.22
2022-09-30T16:56:50.981Z,4.93
2022-09-30T16:59:38.050Z,5.35
2022-09-30T17:02:21.943Z,5.43
2022-09-30T17:05:06.425Z,6.15
2022-09-30T17:07:54.112Z,4.18
2022-09-30T17:10:37.899Z,4.18
2022-09-30T17:13:21.645Z,4.55
2022-09-30T17:16:07.090Z,6.00
2022-09-30T17:18:51.054Z,4.72
2022-09-30T17:21:34.864Z,4.55
2022-09-30T17:24:18.597Z,4.78
2022-09-30T17:27:02.345Z,4.38
2022-09-30T17:29:46.027Z,4.53
2022-09-30T17:32:31.237Z,4.57
2022-09-30T17:35:15.123Z,3.80
2022-09-30T17:38:00.333Z,4.90
2022-09-30T17:41:01.173Z,4.80
2022-09-30T17:43:45.620Z,4.03
2022-09-30T17:46:29.370Z,3.88
2022-09-30T17:49:20.673Z,4.35
2022-09-30T17:52:07.702Z,5.35
2022-09-30T17:54:52.669Z,5.07
2022-09-30T17:57:40.074Z,4.50
2022-09-30T18:00:24.016Z,4.10
2022-09-30T18:03:08.962Z,4.78
2022-09-30T18:06:01.346Z,4.30
2022-09-30T18:08:49.905Z,4.65
2022-09-30T18:11:36.117Z,4.25
2022-09-30T18:14:22.146Z,4.15
2022-09-30T18:17:08.712Z,3.78
2022-09-30T18:19:52.728Z,4.70
2022-09-30T18:22:38.117Z,4.30
2022-09-30T18:25:22.980Z,3.95
2022-09-30T18:28:09.582Z,4.40
2022-09-30T18:30:53.704Z,4.25
2022-09-30T18:33:37.923Z,3.88
2022-09-30T18:36:21.940Z,4.38
2022-09-30T18:39:07.734Z,4.35
2022-09-30T18:41:51.650Z,3.63
2022-09-30T18:44:37.975Z,3.95
2022-09-30T18:47:22.056Z,4.40
2022-09-30T18:50:07.375Z,3.28
2022-09-30T18:52:52.861Z,4.35
2022-09-30T18:55:39.903Z,3.92
2022-09-30T18:58:23.902Z,4.35
2022-09-30T19:01:11.388Z,4.05
2022-09-30T19:03:55.287Z,3.63
2022-09-30T19:06:39.776Z,3.85
2022-09-30T19:09:26.488Z,4.32
2022-09-30T19:12:11.685Z,3.63
2022-09-30T19:14:55.452Z,4.05
2022-09-30T19:17:39.244Z,4.10
2022-09-30T19:20:23.103Z,3.53
2022-09-30T19:23:08.913Z,3.40
2022-09-30T19:25:54.555Z,3.90
2022-09-30T19:28:39.731Z,3.67
2022-09-30T19:31:24.140Z,4.28
2022-09-30T19:34:13.103Z,3.38
2022-09-30T19:36:59.959Z,4.10
2022-09-30T19:39:46.189Z,3.55
2022-09-30T19:42:30.140Z,3.58
2022-09-30T19:45:16.760Z,4.15
2022-09-30T19:48:01.564Z,3.80
2022-09-30T19:50:45.425Z,3.67
2022-09-30T19:53:31.041Z,3.55
2022-09-30T19:56:16.771Z,3.55
2022-09-30T19:59:00.769Z,4.10
2022-09-30T20:01:46.277Z,4.22
2022-09-30T20:04:30.180Z,4.60
2022-09-30T20:07:16.179Z,4.60
2022-09-30T20:10:00.937Z,4.13
2022-09-30T20:12:45.039Z,4.72
2022-09-30T20:15:46.305Z,4.93
2022-09-30T20:18:31.814Z,5.20
2022-09-30T20:21:17.349Z,6.10
2022-09-30T20:24:02.494Z,4.28
2022-09-30T20:26:47.308Z,4.70
2022-09-30T20:29:31.149Z,4.05
2022-09-30T20:32:14.954Z,4.50
2022-09-30T20:35:00.341Z,5.03
2022-09-30T20:37:44.240Z,5.30
2022-09-30T20:40:28.100Z,4.72
2022-09-30T20:43:13.317Z,4.80
2022-09-30T20:45:59.548Z,5.70
2022-09-30T20:48:43.317Z,6.05
2022-09-30T20:51:30.356Z,5.65
2022-09-30T20:54:14.418Z,5.07
2022-09-30T20:57:12.222Z,5.53
2022-09-30T20:59:55.895Z,5.47
2022-09-30T21:02:39.565Z,6.13
2022-09-30T21:05:23.305Z,5.53
2022-09-30T21:08:08.422Z,5.75
2022-09-30T21:10:52.357Z,5.40
2022-09-30T21:13:38.296Z,4.88
2022-09-30T21:16:24.704Z,4.15
2022-09-30T21:19:08.806Z,3.63
2022-09-30T21:21:52.528Z,7.03
2022-09-30T21:24:37.678Z,6.38
2022-09-30T21:27:21.425Z,7.07
2022-09-30T21:30:06.065Z,6.93
2022-09-30T21:32:49.951Z,6.28
2022-09-30T21:35:33.574Z,3.70
2022-09-30T21:38:18.194Z,3.63
2022-09-30T21:41:05.837Z,3.17
2022-09-30T21:43:49.675Z,4.30
2022-09-30T21:46:35.668Z,3.13
2022-09-30T21:49:21.179Z,3.60
2022-09-30T21:52:07.868Z,5.93
2022-09-30T21:54:57.112Z,7.05
2022-09-30T21:57:42.173Z,6.50
2022-09-30T22:00:25.874Z,6.45
2022-09-30T22:03:09.579Z,7.30
2022-09-30T22:05:53.908Z,7.10
2022-09-30T22:08:40.945Z,7.68
2022-09-30T22:11:25.643Z,8.07
2022-09-30T22:14:11.772Z,8.43
2022-09-30T22:16:55.976Z,7.25
2022-09-30T22:19:39.980Z,8.57
2022-09-30T22:22:24.011Z,9.02
2022-09-30T22:25:09.071Z,7.75
2022-09-30T22:27:52.755Z,7.82
2022-09-30T22:30:37.920Z,8.52
2022-09-30T22:33:53.385Z,8.65
2022-09-30T22:36:54.813Z,8.65
2022-09-30T22:39:38.570Z,9.38
2022-09-30T22:42:23.144Z,9.65
2022-09-30T22:45:07.930Z,9.88
2022-09-30T22:47:53.220Z,9.05
2022-09-30T22:50:37.006Z,10.23
2022-09-30T22:53:20.711Z,8.32
2022-09-30T22:56:06.067Z,8.45
2022-09-30T22:58:49.805Z,8.23
2022-09-30T23:01:33.930Z,8.93
2022-09-30T23:04:19.875Z,9.13
2022-09-30T23:07:04.520Z,9.60
2022-09-30T23:09:48.257Z,8.70
2022-09-30T23:12:33.840Z,9.43
2022-09-30T23:15:17.768Z,10.05
2022-09-30T23:18:01.448Z,8.15
2022-09-30T23:20:55.338Z,8.73
2022-09-30T23:23:40.489Z,8.38
2022-09-30T23:26:26.482Z,7.90
2022-09-30T23:29:13.057Z,8.88
2022-09-30T23:31:56.821Z,8.65
2022-09-30T23:34:40.524Z,8.77
2022-09-30T23:37:25.579Z,7.13
2022-09-30T23:40:10.463Z,7.72
2022-09-30T23:42:56.573Z,7.95
2022-09-30T23:45:40.461Z,6.68
2022-09-30T23:48:24.500Z,6.50
2022-09-30T23:51:08.950Z,7.00
2022-09-30T23:53:54.168Z,6.95
2022-09-30T23:56:38.077Z,7.60
2022-09-30T23:59:21.967Z,7.32
